createdAt,value
2024-03-27T00:05:27.408Z,12.10
2024-03-27T00:26:34.896Z,12.10
2024-03-27T00:47:26.843Z,15.30
2024-03-27T01:08:26.576Z,12.00
2024-03-27T01:29:26.250Z,13.00
2024-03-27T01:50:25.962Z,13.40
2024-03-27T02:11:25.678Z,14.60
2024-03-27T02:32:25.430Z,14.50
2024-03-27T02:53:25.102Z,17.00
2024-03-27T03:14:24.836Z,12.90
2024-03-27T03:35:24.528Z,17.10
2024-03-27T03:56:24.269Z,9.40
2024-03-27T04:17:23.966Z,16.80
2024-03-27T04:38:23.663Z,13.70
2024-03-27T04:59:23.380Z,14.30
2024-03-27T05:20:23.084Z,14.00
2024-03-27T05:41:22.818Z,17.10
2024-03-27T06:02:22.483Z,18.40
2024-03-27T06:23:22.205Z,17.00
2024-03-27T06:44:21.998Z,15.60
2024-03-27T07:05:21.630Z,16.90
2024-03-27T07:26:21.358Z,16.40
2024-03-27T07:47:21.105Z,12.40
2024-03-27T08:08:20.791Z,15.40
2024-03-27T08:29:20.509Z,12.50
2024-03-27T08:50:20.220Z,13.30
2024-03-27T09:11:19.952Z,12.10
2024-03-27T09:32:19.626Z,8.90
2024-03-27T09:53:19.309Z,13.50
2024-03-27T10:14:19.010Z,11.80
2024-03-27T10:35:18.715Z,11.20
2024-03-27T10:56:18.442Z,10.40
2024-03-27T11:17:18.146Z,8.60
2024-03-27T11:38:17.879Z,10.60
2024-03-27T11:59:17.600Z,9.30
2024-03-27T12:20:17.338Z,10.50
2024-03-27T12:41:16.999Z,8.20
2024-03-27T13:02:16.690Z,9.20
2024-03-27T13:23:16.448Z,9.60
2024-03-27T13:44:16.120Z,8.10
2024-03-27T14:05:15.828Z,8.80
2024-03-27T14:26:15.592Z,6.90
2024-03-27T14:47:15.270Z,6.30
2024-03-27T15:08:14.951Z,6.50
2024-03-27T15:29:14.684Z,10.20
2024-03-27T15:50:14.358Z,8.60
2024-03-27T16:11:14.114Z,10.50
2024-03-27T16:32:13.907Z,7.20
2024-03-27T16:53:13.491Z,10.00
2024-03-27T17:14:13.207Z,11.50
2024-03-27T17:35:13.153Z,12.40
2024-03-27T17:56:12.645Z,10.20
2024-03-27T18:17:12.586Z,12.30
2024-03-27T18:38:12.050Z,10.90
2024-03-27T18:59:11.781Z,15.30
2024-03-27T19:20:11.451Z,14.00
2024-03-27T19:41:11.141Z,10.40
2024-03-27T20:02:10.898Z,8.60
2024-03-27T20:23:10.586Z,11.90
2024-03-27T20:44:10.312Z,11.10
2024-03-27T21:05:10.033Z,9.60
2024-03-27T21:26:09.733Z,12.50
2024-03-27T21:47:09.527Z,13.00
2024-03-27T22:08:09.184Z,13.70
2024-03-27T22:29:08.928Z,14.10
2024-03-27T22:50:08.604Z,14.20
2024-03-27T23:11:08.351Z,11.20
2024-03-27T23:32:08.068Z,13.50
2024-03-27T23:53:07.805Z,16.50
